sensor_id;sensor_type;location;lat;lon;timestamp;temperature;humidity
10386;DHT22;34307;51.332;12.334;2023-07-24T00:00:41;21.00;55.40
10386;DHT22;34307;51.332;12.334;2023-07-24T00:03:10;21.00;55.50
10386;DHT22;34307;51.332;12.334;2023-07-24T00:05:38;21.00;55.70
10386;DHT22;34307;51.332;12.334;2023-07-24T00:08:07;21.00;56.00
10386;DHT22;34307;51.332;12.334;2023-07-24T00:10:36;20.90;56.20
10386;DHT22;34307;51.332;12.334;2023-07-24T00:13:05;20.90;56.90
10386;DHT22;34307;51.332;12.334;2023-07-24T00:15:35;20.80;57.40
10386;DHT22;34307;51.332;12.334;2023-07-24T00:18:03;20.80;58.10
10386;DHT22;34307;51.332;12.334;2023-07-24T00:20:33;20.70;58.50
10386;DHT22;34307;51.332;12.334;2023-07-24T00:23:01;20.70;58.80
10386;DHT22;34307;51.332;12.334;2023-07-24T00:25:29;20.70;59.20
10386;DHT22;34307;51.332;12.334;2023-07-24T00:27:59;20.70;59.80
10386;DHT22;34307;51.332;12.334;2023-07-24T00:30:27;20.60;60.40
10386;DHT22;34307;51.332;12.334;2023-07-24T00:32:55;20.60;61.00
10386;DHT22;34307;51.332;12.334;2023-07-24T00:35:25;20.60;62.60
10386;DHT22;34307;51.332;12.334;2023-07-24T00:37:54;20.60;62.50
10386;DHT22;34307;51.332;12.334;2023-07-24T00:40:23;20.50;63.10
10386;DHT22;34307;51.332;12.334;2023-07-24T00:42:50;20.50;63.60
10386;DHT22;34307;51.332;12.334;2023-07-24T00:45:20;20.50;63.90
10386;DHT22;34307;51.332;12.334;2023-07-24T00:47:49;20.50;64.70
10386;DHT22;34307;51.332;12.334;2023-07-24T00:50:20;20.50;64.60
10386;DHT22;34307;51.332;12.334;2023-07-24T00:52:49;20.50;65.30
10386;DHT22;34307;51.332;12.334;2023-07-24T00:55:20;20.50;65.10
10386;DHT22;34307;51.332;12.334;2023-07-24T00:57:49;20.50;65.50
10386;DHT22;34307;51.332;12.334;2023-07-24T01:00:18;20.60;65.20
10386;DHT22;34307;51.332;12.334;2023-07-24T01:02:46;20.60;65.10
10386;DHT22;34307;51.332;12.334;2023-07-24T01:05:18;20.60;64.40
10386;DHT22;34307;51.332;12.334;2023-07-24T01:07:46;20.70;64.40
10386;DHT22;34307;51.332;12.334;2023-07-24T01:10:14;20.70;64.00
10386;DHT22;34307;51.332;12.334;2023-07-24T01:12:53;20.70;64.00
10386;DHT22;34307;51.332;12.334;2023-07-24T01:15:29;20.70;64.00
10386;DHT22;34307;51.332;12.334;2023-07-24T01:18:01;20.70;64.20
10386;DHT22;34307;51.332;12.334;2023-07-24T01:20:32;20.60;65.00
10386;DHT22;34307;51.332;12.334;2023-07-24T01:23:36;20.60;65.60
10386;DHT22;34307;51.332;12.334;2023-07-24T01:26:07;20.50;66.50
10386;DHT22;34307;51.332;12.334;2023-07-24T01:28:35;20.50;67.30
10386;DHT22;34307;51.332;12.334;2023-07-24T01:31:04;20.40;67.90
10386;DHT22;34307;51.332;12.334;2023-07-24T01:33:34;20.40;68.50
10386;DHT22;34307;51.332;12.334;2023-07-24T01:36:04;20.30;69.70
10386;DHT22;34307;51.332;12.334;2023-07-24T01:38:34;20.20;71.20
10386;DHT22;34307;51.332;12.334;2023-07-24T01:41:03;20.10;72.30
10386;DHT22;34307;51.332;12.334;2023-07-24T01:43:33;20.10;73.60
10386;DHT22;34307;51.332;12.334;2023-07-24T01:46:02;20.10;74.80
10386;DHT22;34307;51.332;12.334;2023-07-24T01:48:31;20.10;75.20
10386;DHT22;34307;51.332;12.334;2023-07-24T01:51:00;20.10;75.00
10386;DHT22;34307;51.332;12.334;2023-07-24T01:53:32;20.10;75.00
10386;DHT22;34307;51.332;12.334;2023-07-24T01:56:01;20.10;75.90
10386;DHT22;34307;51.332;12.334;2023-07-24T01:58:30;20.00;76.20
10386;DHT22;34307;51.332;12.334;2023-07-24T02:01:00;20.00;77.30
10386;DHT22;34307;51.332;12.334;2023-07-24T02:03:28;19.90;77.80
10386;DHT22;34307;51.332;12.334;2023-07-24T02:05:56;20.00;77.90
10386;DHT22;34307;51.332;12.334;2023-07-24T02:08:26;20.00;77.60
10386;DHT22;34307;51.332;12.334;2023-07-24T02:10:54;19.90;77.20
10386;DHT22;34307;51.332;12.334;2023-07-24T02:13:24;19.90;78.30
10386;DHT22;34307;51.332;12.334;2023-07-24T02:15:53;19.90;77.90
10386;DHT22;34307;51.332;12.334;2023-07-24T02:18:23;19.80;78.80
10386;DHT22;34307;51.332;12.334;2023-07-24T02:20:53;19.70;79.80
10386;DHT22;34307;51.332;12.334;2023-07-24T02:23:22;19.70;79.70
10386;DHT22;34307;51.332;12.334;2023-07-24T02:25:51;19.70;79.80
10386;DHT22;34307;51.332;12.334;2023-07-24T02:28:20;19.70;79.60
10386;DHT22;34307;51.332;12.334;2023-07-24T02:30:47;19.70;79.20
10386;DHT22;34307;51.332;12.334;2023-07-24T02:33:16;19.70;78.10
10386;DHT22;34307;51.332;12.334;2023-07-24T02:35:46;19.70;76.50
10386;DHT22;34307;51.332;12.334;2023-07-24T02:38:15;19.80;76.10
10386;DHT22;34307;51.332;12.334;2023-07-24T02:40:44;19.80;74.60
10386;DHT22;34307;51.332;12.334;2023-07-24T02:43:12;19.90;73.20
10386;DHT22;34307;51.332;12.334;2023-07-24T02:45:40;19.90;73.30
10386;DHT22;34307;51.332;12.334;2023-07-24T02:48:08;19.80;73.20
10386;DHT22;34307;51.332;12.334;2023-07-24T02:50:38;19.80;72.10
10386;DHT22;34307;51.332;12.334;2023-07-24T02:53:07;19.90;71.50
10386;DHT22;34307;51.332;12.334;2023-07-24T02:55:36;19.90;70.90
10386;DHT22;34307;51.332;12.334;2023-07-24T02:58:04;19.90;71.30
10386;DHT22;34307;51.332;12.334;2023-07-24T03:00:33;19.80;71.10
10386;DHT22;34307;51.332;12.334;2023-07-24T03:03:05;19.80;70.90
10386;DHT22;34307;51.332;12.334;2023-07-24T03:05:34;19.80;71.00
10386;DHT22;34307;51.332;12.334;2023-07-24T03:08:04;19.80;70.60
10386;DHT22;34307;51.332;12.334;2023-07-24T03:10:40;19.70;70.90
10386;DHT22;34307;51.332;12.334;2023-07-24T03:13:09;19.70;71.10
10386;DHT22;34307;51.332;12.334;2023-07-24T03:15:37;19.70;70.30
10386;DHT22;34307;51.332;12.334;2023-07-24T03:18:06;19.70;70.00
10386;DHT22;34307;51.332;12.334;2023-07-24T03:20:34;19.60;70.80
10386;DHT22;34307;51.332;12.334;2023-07-24T03:23:03;19.70;70.00
10386;DHT22;34307;51.332;12.334;2023-07-24T03:25:31;19.60;70.10
10386;DHT22;34307;51.332;12.334;2023-07-24T03:28:04;19.60;69.70
10386;DHT22;34307;51.332;12.334;2023-07-24T03:30:32;19.60;69.50
10386;DHT22;34307;51.332;12.334;2023-07-24T03:33:01;19.70;68.80
10386;DHT22;34307;51.332;12.334;2023-07-24T03:35:29;19.70;68.00
10386;DHT22;34307;51.332;12.334;2023-07-24T03:37:58;19.80;66.70
10386;DHT22;34307;51.332;12.334;2023-07-24T03:40:26;19.80;66.00
10386;DHT22;34307;51.332;12.334;2023-07-24T03:42:55;20.00;64.50
10386;DHT22;34307;51.332;12.334;2023-07-24T03:45:24;19.90;64.30
10386;DHT22;34307;51.332;12.334;2023-07-24T03:47:52;19.90;63.70
10386;DHT22;34307;51.332;12.334;2023-07-24T03:50:21;20.00;63.00
10386;DHT22;34307;51.332;12.334;2023-07-24T03:52:49;20.10;62.70
10386;DHT22;34307;51.332;12.334;2023-07-24T03:55:17;20.20;62.00
10386;DHT22;34307;51.332;12.334;2023-07-24T03:57:46;20.10;61.70
10386;DHT22;34307;51.332;12.334;2023-07-24T04:00:14;20.10;61.50
10386;DHT22;34307;51.332;12.334;2023-07-24T04:02:47;20.10;61.50
10386;DHT22;34307;51.332;12.334;2023-07-24T04:05:15;20.20;61.20
10386;DHT22;34307;51.332;12.334;2023-07-24T04:07:46;20.30;60.90
10386;DHT22;34307;51.332;12.334;2023-07-24T04:10:15;20.20;60.60
10386;DHT22;34307;51.332;12.334;2023-07-24T04:12:45;20.20;60.50
10386;DHT22;34307;51.332;12.334;2023-07-24T04:15:13;20.20;60.00
10386;DHT22;34307;51.332;12.334;2023-07-24T04:17:41;20.30;59.80
10386;DHT22;34307;51.332;12.334;2023-07-24T04:20:11;20.30;59.60
10386;DHT22;34307;51.332;12.334;2023-07-24T04:22:40;20.40;59.60
10386;DHT22;34307;51.332;12.334;2023-07-24T04:25:10;20.30;59.70
10386;DHT22;34307;51.332;12.334;2023-07-24T04:27:39;20.30;59.80
10386;DHT22;34307;51.332;12.334;2023-07-24T04:30:08;20.30;59.70
10386;DHT22;34307;51.332;12.334;2023-07-24T04:32:37;20.40;59.50
10386;DHT22;34307;51.332;12.334;2023-07-24T04:35:06;20.40;59.40
10386;DHT22;34307;51.332;12.334;2023-07-24T04:37:37;20.40;59.10
10386;DHT22;34307;51.332;12.334;2023-07-24T04:40:06;20.50;58.60
10386;DHT22;34307;51.332;12.334;2023-07-24T04:42:35;20.50;58.40
10386;DHT22;34307;51.332;12.334;2023-07-24T04:45:03;20.50;58.50
10386;DHT22;34307;51.332;12.334;2023-07-24T04:47:32;20.60;58.20
10386;DHT22;34307;51.332;12.334;2023-07-24T04:50:00;20.60;58.10
10386;DHT22;34307;51.332;12.334;2023-07-24T04:52:30;20.60;58.10
10386;DHT22;34307;51.332;12.334;2023-07-24T04:54:59;20.60;58.40
10386;DHT22;34307;51.332;12.334;2023-07-24T04:57:28;20.70;58.20
10386;DHT22;34307;51.332;12.334;2023-07-24T04:59:56;20.70;58.20
10386;DHT22;34307;51.332;12.334;2023-07-24T05:02:24;20.70;58.30
10386;DHT22;34307;51.332;12.334;2023-07-24T05:04:55;20.70;58.70
10386;DHT22;34307;51.332;12.334;2023-07-24T05:07:24;20.70;58.70
10386;DHT22;34307;51.332;12.334;2023-07-24T05:09:53;20.70;58.20
10386;DHT22;34307;51.332;12.334;2023-07-24T05:12:22;20.70;58.40
10386;DHT22;34307;51.332;12.334;2023-07-24T05:14:51;20.80;57.30
10386;DHT22;34307;51.332;12.334;2023-07-24T05:17:19;20.90;57.40
10386;DHT22;34307;51.332;12.334;2023-07-24T05:19:47;21.00;57.70
10386;DHT22;34307;51.332;12.334;2023-07-24T05:22:15;21.10;57.60
10386;DHT22;34307;51.332;12.334;2023-07-24T05:24:45;21.30;57.20
10386;DHT22;34307;51.332;12.334;2023-07-24T05:27:13;21.40;57.10
10386;DHT22;34307;51.332;12.334;2023-07-24T05:29:44;21.50;56.60
10386;DHT22;34307;51.332;12.334;2023-07-24T05:32:12;21.50;56.80
10386;DHT22;34307;51.332;12.334;2023-07-24T05:34:40;21.40;56.10
10386;DHT22;34307;51.332;12.334;2023-07-24T05:37:11;21.30;56.90
10386;DHT22;34307;51.332;12.334;2023-07-24T05:39:40;21.20;57.00
10386;DHT22;34307;51.332;12.334;2023-07-24T05:42:08;21.30;57.40
10386;DHT22;34307;51.332;12.334;2023-07-24T05:44:37;21.30;57.20
10386;DHT22;34307;51.332;12.334;2023-07-24T05:47:07;21.40;57.50
10386;DHT22;34307;51.332;12.334;2023-07-24T05:49:37;21.50;56.90
10386;DHT22;34307;51.332;12.334;2023-07-24T05:52:08;21.70;57.00
10386;DHT22;34307;51.332;12.334;2023-07-24T05:54:36;21.70;56.70
10386;DHT22;34307;51.332;12.334;2023-07-24T05:57:05;21.80;55.80
10386;DHT22;34307;51.332;12.334;2023-07-24T05:59:34;21.90;55.20
10386;DHT22;34307;51.332;12.334;2023-07-24T06:02:04;22.10;54.30
10386;DHT22;34307;51.332;12.334;2023-07-24T06:04:34;22.30;51.90
10386;DHT22;34307;51.332;12.334;2023-07-24T06:07:02;22.40;50.90
10386;DHT22;34307;51.332;12.334;2023-07-24T06:09:32;22.50;49.70
10386;DHT22;34307;51.332;12.334;2023-07-24T06:12:15;22.50;48.90
10386;DHT22;34307;51.332;12.334;2023-07-24T06:14:48;22.50;48.50
10386;DHT22;34307;51.332;12.334;2023-07-24T06:17:21;22.60;48.20
10386;DHT22;34307;51.332;12.334;2023-07-24T06:19:57;22.60;48.10
10386;DHT22;34307;51.332;12.334;2023-07-24T06:22:25;22.70;47.10
10386;DHT22;34307;51.332;12.334;2023-07-24T06:24:55;22.60;47.00
10386;DHT22;34307;51.332;12.334;2023-07-24T06:27:23;22.70;46.80
10386;DHT22;34307;51.332;12.334;2023-07-24T06:29:51;22.80;46.60
10386;DHT22;34307;51.332;12.334;2023-07-24T06:32:30;22.90;46.30
10386;DHT22;34307;51.332;12.334;2023-07-24T06:35:00;23.00;45.50
10386;DHT22;34307;51.332;12.334;2023-07-24T06:37:28;23.10;45.40
10386;DHT22;34307;51.332;12.334;2023-07-24T06:39:56;23.20;44.80
10386;DHT22;34307;51.332;12.334;2023-07-24T06:42:24;23.20;44.60
10386;DHT22;34307;51.332;12.334;2023-07-24T06:44:53;23.20;43.40
10386;DHT22;34307;51.332;12.334;2023-07-24T06:47:22;23.40;44.00
10386;DHT22;34307;51.332;12.334;2023-07-24T06:49:57;23.50;43.20
10386;DHT22;34307;51.332;12.334;2023-07-24T06:52:28;23.40;42.10
10386;DHT22;34307;51.332;12.334;2023-07-24T06:55:06;23.50;42.40
10386;DHT22;34307;51.332;12.334;2023-07-24T06:57:37;23.50;41.90
10386;DHT22;34307;51.332;12.334;2023-07-24T07:00:13;23.70;41.80
10386;DHT22;34307;51.332;12.334;2023-07-24T07:02:43;23.80;41.60
10386;DHT22;34307;51.332;12.334;2023-07-24T07:05:14;24.00;40.00
10386;DHT22;34307;51.332;12.334;2023-07-24T07:07:46;24.20;39.40
10386;DHT22;34307;51.332;12.334;2023-07-24T07:10:16;24.40;39.20
10386;DHT22;34307;51.332;12.334;2023-07-24T07:12:45;24.40;38.10
10386;DHT22;34307;51.332;12.334;2023-07-24T07:15:13;24.40;38.50
10386;DHT22;34307;51.332;12.334;2023-07-24T07:17:41;24.50;38.50
10386;DHT22;34307;51.332;12.334;2023-07-24T07:20:09;24.70;37.30
10386;DHT22;34307;51.332;12.334;2023-07-24T07:22:39;24.50;37.30
10386;DHT22;34307;51.332;12.334;2023-07-24T07:25:12;24.50;36.70
10386;DHT22;34307;51.332;12.334;2023-07-24T07:27:40;24.60;37.20
10386;DHT22;34307;51.332;12.334;2023-07-24T07:30:09;24.70;36.50
10386;DHT22;34307;51.332;12.334;2023-07-24T07:32:38;24.80;36.00
10386;DHT22;34307;51.332;12.334;2023-07-24T07:35:07;24.80;35.90
10386;DHT22;34307;51.332;12.334;2023-07-24T07:37:35;24.80;35.50
10386;DHT22;34307;51.332;12.334;2023-07-24T07:40:04;24.90;34.70
10386;DHT22;34307;51.332;12.334;2023-07-24T07:42:34;25.00;34.10
10386;DHT22;34307;51.332;12.334;2023-07-24T07:45:06;25.10;34.00
10386;DHT22;34307;51.332;12.334;2023-07-24T07:47:37;25.20;33.00
10386;DHT22;34307;51.332;12.334;2023-07-24T07:50:05;25.40;32.60
10386;DHT22;34307;51.332;12.334;2023-07-24T07:52:37;25.50;31.80
10386;DHT22;34307;51.332;12.334;2023-07-24T07:55:08;25.30;31.20
10386;DHT22;34307;51.332;12.334;2023-07-24T07:57:39;25.30;31.90
10386;DHT22;34307;51.332;12.334;2023-07-24T08:00:08;25.20;31.60
10386;DHT22;34307;51.332;12.334;2023-07-24T08:02:37;25.20;31.20
10386;DHT22;34307;51.332;12.334;2023-07-24T08:05:08;25.00;31.40
10386;DHT22;34307;51.332;12.334;2023-07-24T08:07:46;25.30;30.10
10386;DHT22;34307;51.332;12.334;2023-07-24T08:10:14;25.40;30.70
10386;DHT22;34307;51.332;12.334;2023-07-24T08:12:46;25.40;30.10
10386;DHT22;34307;51.332;12.334;2023-07-24T08:15:14;25.30;29.90
10386;DHT22;34307;51.332;12.334;2023-07-24T08:17:42;25.40;29.90
10386;DHT22;34307;51.332;12.334;2023-07-24T08:20:13;25.50;30.30
10386;DHT22;34307;51.332;12.334;2023-07-24T08:22:42;25.60;29.50
10386;DHT22;34307;51.332;12.334;2023-07-24T08:25:13;25.90;28.90
10386;DHT22;34307;51.332;12.334;2023-07-24T08:27:43;26.10;27.90
10386;DHT22;34307;51.332;12.334;2023-07-24T08:30:31;25.80;26.90
10386;DHT22;34307;51.332;12.334;2023-07-24T08:33:07;25.90;27.90
10386;DHT22;34307;51.332;12.334;2023-07-24T08:35:35;25.90;26.60
10386;DHT22;34307;51.332;12.334;2023-07-24T08:38:03;26.10;26.70
10386;DHT22;34307;51.332;12.334;2023-07-24T08:40:34;26.20;25.70
10386;DHT22;34307;51.332;12.334;2023-07-24T08:43:02;26.40;26.00
10386;DHT22;34307;51.332;12.334;2023-07-24T08:45:32;26.30;24.50
10386;DHT22;34307;51.332;12.334;2023-07-24T08:48:01;26.30;25.30
10386;DHT22;34307;51.332;12.334;2023-07-24T08:50:34;26.10;24.80
10386;DHT22;34307;51.332;12.334;2023-07-24T08:53:03;26.20;24.40
10386;DHT22;34307;51.332;12.334;2023-07-24T08:55:33;26.30;23.60
10386;DHT22;34307;51.332;12.334;2023-07-24T08:58:02;26.20;23.10
10386;DHT22;34307;51.332;12.334;2023-07-24T09:00:34;26.00;23.60
10386;DHT22;34307;51.332;12.334;2023-07-24T09:03:03;26.20;23.50
10386;DHT22;34307;51.332;12.334;2023-07-24T09:05:32;26.60;23.40
10386;DHT22;34307;51.332;12.334;2023-07-24T09:08:04;26.90;22.40
10386;DHT22;34307;51.332;12.334;2023-07-24T09:10:38;27.10;21.60
10386;DHT22;34307;51.332;12.334;2023-07-24T09:13:06;27.10;21.50
10386;DHT22;34307;51.332;12.334;2023-07-24T09:15:43;27.00;20.90
10386;DHT22;34307;51.332;12.334;2023-07-24T09:18:12;26.90;20.70
10386;DHT22;34307;51.332;12.334;2023-07-24T09:20:43;27.30;20.30
10386;DHT22;34307;51.332;12.334;2023-07-24T09:23:14;27.50;19.00
10386;DHT22;34307;51.332;12.334;2023-07-24T09:25:47;27.20;19.60
10386;DHT22;34307;51.332;12.334;2023-07-24T09:28:17;27.00;18.50
10386;DHT22;34307;51.332;12.334;2023-07-24T09:30:54;27.00;19.50
10386;DHT22;34307;51.332;12.334;2023-07-24T09:33:23;26.90;18.60
10386;DHT22;34307;51.332;12.334;2023-07-24T09:36:03;26.90;18.70
10386;DHT22;34307;51.332;12.334;2023-07-24T09:38:34;27.00;19.20
10386;DHT22;34307;51.332;12.334;2023-07-24T09:41:03;27.00;18.40
10386;DHT22;34307;51.332;12.334;2023-07-24T09:43:32;27.10;19.40
10386;DHT22;34307;51.332;12.334;2023-07-24T09:46:09;27.50;19.00
10386;DHT22;34307;51.332;12.334;2023-07-24T09:48:37;27.80;17.50
10386;DHT22;34307;51.332;12.334;2023-07-24T09:51:29;27.60;17.30
10386;DHT22;34307;51.332;12.334;2023-07-24T09:54:06;28.00;17.20
10386;DHT22;34307;51.332;12.334;2023-07-24T09:56:38;28.00;16.10
10386;DHT22;34307;51.332;12.334;2023-07-24T09:59:19;27.90;16.00
10386;DHT22;34307;51.332;12.334;2023-07-24T10:01:50;27.80;16.10
10386;DHT22;34307;51.332;12.334;2023-07-24T10:04:20;27.80;14.70
10386;DHT22;34307;51.332;12.334;2023-07-24T10:06:48;27.60;15.90
10386;DHT22;34307;51.332;12.334;2023-07-24T10:09:19;27.70;16.00
10386;DHT22;34307;51.332;12.334;2023-07-24T10:11:49;27.30;14.90
10386;DHT22;34307;51.332;12.334;2023-07-24T10:14:17;27.20;16.30
10386;DHT22;34307;51.332;12.334;2023-07-24T10:16:47;27.40;15.60
10386;DHT22;34307;51.332;12.334;2023-07-24T10:19:23;27.50;16.60
10386;DHT22;34307;51.332;12.334;2023-07-24T10:21:53;27.70;15.30
10386;DHT22;34307;51.332;12.334;2023-07-24T10:24:28;27.70;15.50
10386;DHT22;34307;51.332;12.334;2023-07-24T10:27:10;27.60;15.50
10386;DHT22;34307;51.332;12.334;2023-07-24T10:29:41;27.50;16.30
10386;DHT22;34307;51.332;12.334;2023-07-24T10:32:17;27.80;16.30
10386;DHT22;34307;51.332;12.334;2023-07-24T10:34:57;27.70;16.10
10386;DHT22;34307;51.332;12.334;2023-07-24T10:37:32;27.70;16.10
10386;DHT22;34307;51.332;12.334;2023-07-24T10:40:01;27.70;16.50
10386;DHT22;34307;51.332;12.334;2023-07-24T10:42:31;28.00;15.90
10386;DHT22;34307;51.332;12.334;2023-07-24T10:45:05;28.00;15.40
10386;DHT22;34307;51.332;12.334;2023-07-24T10:47:33;28.40;16.10
10386;DHT22;34307;51.332;12.334;2023-07-24T10:50:04;28.50;15.50
10386;DHT22;34307;51.332;12.334;2023-07-24T10:52:34;28.30;14.50
10386;DHT22;34307;51.332;12.334;2023-07-24T10:55:04;28.30;14.70
10386;DHT22;34307;51.332;12.334;2023-07-24T10:57:32;28.40;15.10
10386;DHT22;34307;51.332;12.334;2023-07-24T11:00:02;28.20;14.60
10386;DHT22;34307;51.332;12.334;2023-07-24T11:02:31;28.40;14.90
10386;DHT22;34307;51.332;12.334;2023-07-24T11:05:00;28.30;14.80
10386;DHT22;34307;51.332;12.334;2023-07-24T11:07:33;28.30;15.20
10386;DHT22;34307;51.332;12.334;2023-07-24T11:10:01;28.10;15.40
10386;DHT22;34307;51.332;12.334;2023-07-24T11:12:31;27.70;16.10
10386;DHT22;34307;51.332;12.334;2023-07-24T11:14:59;27.70;16.60
10386;DHT22;34307;51.332;12.334;2023-07-24T11:17:36;27.70;16.60
10386;DHT22;34307;51.332;12.334;2023-07-24T11:20:10;27.60;16.60
10386;DHT22;34307;51.332;12.334;2023-07-24T11:22:43;27.60;16.50
10386;DHT22;34307;51.332;12.334;2023-07-24T11:25:12;27.60;16.40
10386;DHT22;34307;51.332;12.334;2023-07-24T11:27:41;27.60;16.80
10386;DHT22;34307;51.332;12.334;2023-07-24T11:30:11;27.70;16.70
10386;DHT22;34307;51.332;12.334;2023-07-24T11:32:40;27.70;16.50
10386;DHT22;34307;51.332;12.334;2023-07-24T11:35:10;27.70;16.40
10386;DHT22;34307;51.332;12.334;2023-07-24T11:37:39;27.50;16.00
10386;DHT22;34307;51.332;12.334;2023-07-24T11:40:09;27.50;16.50
10386;DHT22;34307;51.332;12.334;2023-07-24T11:42:43;27.80;16.60
10386;DHT22;34307;51.332;12.334;2023-07-24T11:45:14;27.90;16.10
10386;DHT22;34307;51.332;12.334;2023-07-24T11:47:45;28.00;15.80
10386;DHT22;34307;51.332;12.334;2023-07-24T11:50:15;28.20;15.20
10386;DHT22;34307;51.332;12.334;2023-07-24T11:52:47;28.10;15.30
10386;DHT22;34307;51.332;12.334;2023-07-24T11:55:22;28.10;14.90
10386;DHT22;34307;51.332;12.334;2023-07-24T11:57:58;28.10;14.20
10386;DHT22;34307;51.332;12.334;2023-07-24T12:00:32;28.30;13.80
10386;DHT22;34307;51.332;12.334;2023-07-24T12:03:03;28.50;13.00
10386;DHT22;34307;51.332;12.334;2023-07-24T12:05:37;28.60;12.70
10386;DHT22;34307;51.332;12.334;2023-07-24T12:08:06;28.90;12.10
10386;DHT22;34307;51.332;12.334;2023-07-24T12:10:37;29.00;11.80
10386;DHT22;34307;51.332;12.334;2023-07-24T12:13:33;29.40;11.20
10386;DHT22;34307;51.332;12.334;2023-07-24T12:16:01;29.20;11.20
10386;DHT22;34307;51.332;12.334;2023-07-24T12:18:30;29.30;11.20
10386;DHT22;34307;51.332;12.334;2023-07-24T12:20:59;29.30;11.50
10386;DHT22;34307;51.332;12.334;2023-07-24T12:23:31;29.70;11.40
10386;DHT22;34307;51.332;12.334;2023-07-24T12:26:00;29.70;9.20
10386;DHT22;34307;51.332;12.334;2023-07-24T12:28:30;29.70;9.00
10386;DHT22;34307;51.332;12.334;2023-07-24T12:30:58;30.10;7.70
10386;DHT22;34307;51.332;12.334;2023-07-24T12:33:26;30.40;6.40
10386;DHT22;34307;51.332;12.334;2023-07-24T12:35:54;31.10;5.30
10386;DHT22;34307;51.332;12.334;2023-07-24T12:38:25;31.00;2.10
10386;DHT22;34307;51.332;12.334;2023-07-24T12:40:53;31.40;2.20
10386;DHT22;34307;51.332;12.334;2023-07-24T12:43:26;31.20;1.00
10386;DHT22;34307;51.332;12.334;2023-07-24T12:45:54;30.50;1.00
10386;DHT22;34307;51.332;12.334;2023-07-24T12:48:23;30.30;1.00
10386;DHT22;34307;51.332;12.334;2023-07-24T12:50:51;29.80;1.00
10386;DHT22;34307;51.332;12.334;2023-07-24T12:53:21;29.40;1.00
10386;DHT22;34307;51.332;12.334;2023-07-24T12:56:00;29.20;1.30
10386;DHT22;34307;51.332;12.334;2023-07-24T12:58:32;28.90;1.50
10386;DHT22;34307;51.332;12.334;2023-07-24T13:01:02;28.60;2.90
10386;DHT22;34307;51.332;12.334;2023-07-24T13:03:31;28.50;4.50
10386;DHT22;34307;51.332;12.334;2023-07-24T13:05:59;28.20;5.00
10386;DHT22;34307;51.332;12.334;2023-07-24T13:08:27;27.80;5.70
10386;DHT22;34307;51.332;12.334;2023-07-24T13:10:55;27.70;6.80
10386;DHT22;34307;51.332;12.334;2023-07-24T13:13:23;27.60;7.70
10386;DHT22;34307;51.332;12.334;2023-07-24T13:15:53;27.60;7.60
10386;DHT22;34307;51.332;12.334;2023-07-24T13:18:21;27.50;7.10
10386;DHT22;34307;51.332;12.334;2023-07-24T13:20:55;27.30;7.40
10386;DHT22;34307;51.332;12.334;2023-07-24T13:23:23;27.30;8.10
10386;DHT22;34307;51.332;12.334;2023-07-24T13:25:52;27.20;8.50
10386;DHT22;34307;51.332;12.334;2023-07-24T13:28:20;27.10;8.60
10386;DHT22;34307;51.332;12.334;2023-07-24T13:30:48;27.20;7.90
10386;DHT22;34307;51.332;12.334;2023-07-24T13:33:18;27.40;8.50
10386;DHT22;34307;51.332;12.334;2023-07-24T13:35:48;27.40;9.20
10386;DHT22;34307;51.332;12.334;2023-07-24T13:38:17;27.40;10.30
10386;DHT22;34307;51.332;12.334;2023-07-24T13:40:48;27.40;11.60
10386;DHT22;34307;51.332;12.334;2023-07-24T13:43:17;27.40;11.80
10386;DHT22;34307;51.332;12.334;2023-07-24T13:45:45;27.40;11.30
10386;DHT22;34307;51.332;12.334;2023-07-24T13:48:13;27.70;11.10
10386;DHT22;34307;51.332;12.334;2023-07-24T13:50:43;27.90;9.90
10386;DHT22;34307;51.332;12.334;2023-07-24T13:53:12;28.40;7.90
10386;DHT22;34307;51.332;12.334;2023-07-24T13:55:41;28.60;6.70
10386;DHT22;34307;51.332;12.334;2023-07-24T13:58:11;28.40;7.30
10386;DHT22;34307;51.332;12.334;2023-07-24T14:00:40;28.40;7.30
10386;DHT22;34307;51.332;12.334;2023-07-24T14:03:08;28.50;6.90
10386;DHT22;34307;51.332;12.334;2023-07-24T14:05:37;28.80;7.40
10386;DHT22;34307;51.332;12.334;2023-07-24T14:08:08;28.80;7.50
10386;DHT22;34307;51.332;12.334;2023-07-24T14:10:38;28.50;7.30
10386;DHT22;34307;51.332;12.334;2023-07-24T14:13:05;28.20;7.40
10386;DHT22;34307;51.332;12.334;2023-07-24T14:15:33;28.00;7.70
10386;DHT22;34307;51.332;12.334;2023-07-24T14:18:02;27.80;7.80
10386;DHT22;34307;51.332;12.334;2023-07-24T14:20:32;27.80;9.40
10386;DHT22;34307;51.332;12.334;2023-07-24T14:23:00;28.00;8.80
10386;DHT22;34307;51.332;12.334;2023-07-24T14:25:30;27.90;8.00
10386;DHT22;34307;51.332;12.334;2023-07-24T14:27:59;27.90;8.90
10386;DHT22;34307;51.332;12.334;2023-07-24T14:30:28;27.80;9.50
10386;DHT22;34307;51.332;12.334;2023-07-24T14:32:59;28.00;10.00
10386;DHT22;34307;51.332;12.334;2023-07-24T14:35:29;28.60;9.90
10386;DHT22;34307;51.332;12.334;2023-07-24T14:37:59;29.30;10.00
10386;DHT22;34307;51.332;12.334;2023-07-24T14:40:27;29.70;7.60
10386;DHT22;34307;51.332;12.334;2023-07-24T14:42:56;30.20;8.40
10386;DHT22;34307;51.332;12.334;2023-07-24T14:45:24;30.80;5.30
10386;DHT22;34307;51.332;12.334;2023-07-24T14:47:52;31.00;5.40
10386;DHT22;34307;51.332;12.334;2023-07-24T14:50:22;30.50;4.80
10386;DHT22;34307;51.332;12.334;2023-07-24T14:52:50;29.70;5.40
10386;DHT22;34307;51.332;12.334;2023-07-24T14:55:18;29.10;6.60
10386;DHT22;34307;51.332;12.334;2023-07-24T14:57:46;29.40;7.20
10386;DHT22;34307;51.332;12.334;2023-07-24T15:00:17;29.20;8.60
10386;DHT22;34307;51.332;12.334;2023-07-24T15:02:45;29.20;9.90
10386;DHT22;34307;51.332;12.334;2023-07-24T15:05:13;29.20;9.50
10386;DHT22;34307;51.332;12.334;2023-07-24T15:07:41;29.00;9.70
10386;DHT22;34307;51.332;12.334;2023-07-24T15:10:12;28.50;10.50
10386;DHT22;34307;51.332;12.334;2023-07-24T15:12:41;28.00;11.80
10386;DHT22;34307;51.332;12.334;2023-07-24T15:15:10;27.90;12.50
10386;DHT22;34307;51.332;12.334;2023-07-24T15:17:40;28.20;13.40
10386;DHT22;34307;51.332;12.334;2023-07-24T15:20:09;28.70;12.80
10386;DHT22;34307;51.332;12.334;2023-07-24T15:22:39;28.50;12.50
10386;DHT22;34307;51.332;12.334;2023-07-24T15:25:07;28.50;12.40
10386;DHT22;34307;51.332;12.334;2023-07-24T15:27:36;28.40;11.10
10386;DHT22;34307;51.332;12.334;2023-07-24T15:30:06;28.70;10.00
10386;DHT22;34307;51.332;12.334;2023-07-24T15:32:34;29.60;8.00
10386;DHT22;34307;51.332;12.334;2023-07-24T15:35:06;29.10;8.50